createdAt,value
2017-12-20T19:51:18.337Z,99.99
2017-12-20T19:52:18.310Z,99.99
2017-12-20T19:54:11.216Z,99.99
2017-12-20T19:55:11.220Z,99.99
2017-12-20T19:57:04.143Z,99.99
2017-12-20T19:58:04.135Z,99.99
2017-12-20T19:59:57.053Z,99.99
2017-12-20T20:00:57.054Z,99.99
2017-12-20T20:02:49.992Z,99.99
2017-12-20T20:03:49.984Z,99.99
2017-12-20T20:05:42.906Z,99.99
2017-12-20T20:06:42.916Z,99.99
2017-12-20T20:08:35.856Z,99.99
2017-12-20T20:09:35.844Z,99.99
2017-12-20T20:11:30.238Z,99.99
2017-12-20T20:12:28.781Z,99.99
2017-12-20T20:13:28.796Z,99.99
2017-12-20T20:14:28.816Z,99.99
2017-12-20T20:15:28.828Z,99.99
2017-12-20T20:16:28.846Z,99.99
2017-12-20T20:17:28.870Z,99.99
2017-12-20T20:18:28.878Z,99.99
2017-12-20T20:19:28.895Z,99.99
2017-12-20T20:20:28.914Z,99.99
2017-12-20T20:21:28.932Z,99.99
2017-12-20T20:22:28.945Z,99.99
2017-12-20T20:23:28.963Z,99.99
2017-12-20T20:24:28.980Z,99.99
2017-12-20T20:25:28.997Z,99.99
2017-12-20T20:26:29.016Z,99.99
2017-12-20T20:27:29.032Z,99.99
2017-12-20T20:28:29.051Z,99.99
2017-12-20T20:29:29.069Z,99.99
2017-12-20T20:30:29.092Z,99.99
2017-12-20T20:31:29.105Z,99.99
2017-12-20T20:32:29.123Z,99.99
2017-12-20T20:33:29.140Z,99.99
2017-12-20T20:34:29.162Z,99.99
2017-12-20T20:35:29.179Z,99.99
2017-12-20T20:36:29.197Z,99.99
2017-12-20T20:37:29.218Z,99.99
2017-12-20T20:38:29.235Z,99.99
2017-12-20T20:39:29.255Z,99.99
2017-12-20T20:40:29.273Z,99.99
2017-12-20T20:41:29.299Z,99.99
2017-12-20T20:42:29.310Z,99.99
2017-12-20T20:43:29.331Z,99.99
2017-12-20T20:44:29.349Z,99.99
2017-12-20T20:45:29.368Z,99.99
2017-12-20T20:46:29.388Z,99.99
2017-12-20T20:47:29.413Z,99.99
2017-12-20T20:48:29.427Z,99.99
2017-12-20T20:49:29.445Z,99.99
2017-12-20T20:50:29.465Z,99.99
2017-12-20T20:51:29.488Z,99.99
2017-12-20T20:52:29.506Z,99.99
2017-12-20T20:53:29.530Z,99.99
2017-12-20T20:54:29.544Z,99.99
2017-12-20T20:55:29.566Z,99.99
2017-12-20T20:56:29.585Z,99.99
2017-12-20T20:57:29.604Z,99.84
2017-12-20T20:58:29.627Z,99.07
2017-12-20T20:59:29.648Z,98.68
2017-12-20T21:00:29.665Z,97.67
2017-12-20T21:01:29.685Z,97.57
2017-12-20T21:02:29.704Z,96.70
2017-12-20T21:03:29.730Z,96.03
2017-12-20T21:04:29.746Z,95.45
2017-12-20T21:05:29.766Z,94.87
2017-12-20T21:06:29.788Z,94.20
2017-12-20T21:07:29.809Z,93.91
2017-12-20T21:08:29.832Z,93.23
2017-12-20T21:09:29.850Z,93.23
2017-12-20T21:10:29.872Z,92.27
2017-12-20T21:11:29.895Z,91.98
2017-12-20T21:12:29.915Z,91.60
2017-12-20T21:13:29.938Z,90.63
2017-12-20T21:14:29.957Z,89.86
2017-12-20T21:15:29.982Z,89.37
2017-12-20T21:16:30.002Z,88.89
2017-12-20T21:17:30.031Z,88.65
2017-12-20T21:18:30.045Z,88.36
2017-12-20T21:19:30.068Z,88.17
2017-12-20T21:20:30.101Z,87.78
2017-12-20T21:21:30.112Z,87.68
2017-12-20T21:22:30.134Z,87.49
2017-12-20T21:23:30.158Z,86.91
2017-12-20T21:24:30.180Z,87.10
2017-12-20T21:25:30.206Z,86.82
2017-12-20T21:26:30.229Z,86.14
2017-12-20T21:27:30.251Z,87.10
2017-12-20T21:28:30.277Z,86.72
